createdAt,value
2018-09-29T00:01:12.605Z,2.90
2018-09-29T00:03:42.043Z,2.70
2018-09-29T00:06:11.509Z,3.10
2018-09-29T00:08:41.330Z,3.80
2018-09-29T00:11:10.993Z,3.40
2018-09-29T00:13:40.485Z,2.70
2018-09-29T00:16:10.449Z,2.30
2018-09-29T00:18:39.889Z,3.27
2018-09-29T00:21:09.318Z,3.63
2018-09-29T00:23:38.942Z,2.87
2018-09-29T00:26:08.660Z,2.80
2018-09-29T00:28:38.166Z,2.70
2018-09-29T00:31:07.593Z,3.07
2018-09-29T00:33:37.990Z,2.33
2018-09-29T00:36:07.496Z,2.73
2018-09-29T00:38:36.946Z,2.70
2018-09-29T00:41:06.484Z,2.80
2018-09-29T00:43:35.919Z,2.03
2018-09-29T00:46:05.345Z,3.43
2018-09-29T00:48:35.026Z,2.27
2018-09-29T00:51:04.532Z,2.83
2018-09-29T00:53:34.082Z,3.40
2018-09-29T00:56:03.521Z,2.53
2018-09-29T00:58:32.953Z,2.10
2018-09-29T01:01:02.393Z,3.37
2018-09-29T01:03:31.905Z,2.77
2018-09-29T01:06:01.346Z,3.23
2018-09-29T01:08:30.820Z,2.50
2018-09-29T01:11:00.249Z,2.37
2018-09-29T01:13:29.758Z,3.63
2018-09-29T01:15:59.232Z,2.50
2018-09-29T01:18:35.385Z,2.80
2018-09-29T01:21:08.661Z,2.53
2018-09-29T01:23:38.477Z,3.20
2018-09-29T01:26:08.100Z,2.67
2018-09-29T01:28:37.994Z,2.80
2018-09-29T01:31:08.189Z,2.40
2018-09-29T01:33:37.609Z,2.33
2018-09-29T01:36:07.121Z,2.87
2018-09-29T01:38:36.551Z,1.53
2018-09-29T01:41:06.053Z,2.13
2018-09-29T01:43:35.684Z,2.20
2018-09-29T01:46:05.292Z,2.00
2018-09-29T01:48:34.904Z,2.40
2018-09-29T01:51:04.614Z,2.87
2018-09-29T01:53:34.244Z,2.63
2018-09-29T01:56:03.868Z,2.60
2018-09-29T01:58:33.627Z,3.77
2018-09-29T02:01:03.278Z,3.47
2018-09-29T02:03:32.953Z,4.37
2018-09-29T02:06:02.748Z,3.10
2018-09-29T02:08:32.461Z,2.43
2018-09-29T02:11:02.132Z,2.80
2018-09-29T02:13:31.803Z,2.97
2018-09-29T02:16:01.503Z,2.93
2018-09-29T02:18:31.147Z,3.20
2018-09-29T02:21:00.792Z,2.60
2018-09-29T02:23:30.392Z,3.00
2018-09-29T02:26:00.073Z,2.57
2018-09-29T02:28:29.860Z,2.27
2018-09-29T02:30:59.483Z,1.97
2018-09-29T02:33:29.172Z,2.60
2018-09-29T02:35:58.863Z,3.40
2018-09-29T02:38:28.628Z,2.63
2018-09-29T02:41:04.371Z,2.33
2018-09-29T02:43:34.044Z,2.60
2018-09-29T02:46:03.775Z,2.53
2018-09-29T02:48:33.428Z,2.47
2018-09-29T02:51:03.067Z,2.80
2018-09-29T02:53:32.723Z,2.53
2018-09-29T02:56:02.372Z,1.80
2018-09-29T02:58:32.039Z,2.67
2018-09-29T03:01:01.674Z,3.10
2018-09-29T03:03:31.322Z,2.00
2018-09-29T03:06:01.012Z,2.33
2018-09-29T03:08:30.690Z,3.03
2018-09-29T03:11:00.342Z,2.23
2018-09-29T03:13:30.107Z,1.93
2018-09-29T03:15:59.725Z,3.13
2018-09-29T03:18:29.406Z,2.10
2018-09-29T03:20:59.205Z,2.60
2018-09-29T03:23:28.934Z,2.40
2018-09-29T03:25:58.852Z,2.37
2018-09-29T03:28:28.468Z,3.30
2018-09-29T03:30:58.173Z,3.07
2018-09-29T03:33:28.032Z,2.30
2018-09-29T03:35:57.971Z,3.30
2018-09-29T03:38:27.630Z,3.03
2018-09-29T03:40:57.316Z,2.83
2018-09-29T03:43:27.026Z,2.73
2018-09-29T03:45:56.694Z,2.67
2018-09-29T03:48:26.444Z,2.60
2018-09-29T03:50:56.170Z,2.53
2018-09-29T03:53:25.892Z,2.57
2018-09-29T03:55:55.512Z,2.47
2018-09-29T03:58:25.119Z,3.13
2018-09-29T04:00:54.804Z,2.13
2018-09-29T04:03:24.514Z,3.20
2018-09-29T04:05:54.137Z,2.40
2018-09-29T04:08:23.797Z,2.23
2018-09-29T04:10:53.459Z,2.53
2018-09-29T04:13:23.147Z,2.50
2018-09-29T04:15:52.784Z,2.77
2018-09-29T04:18:22.459Z,2.67
2018-09-29T04:20:52.077Z,2.40
2018-09-29T04:23:21.723Z,2.43
2018-09-29T04:25:51.368Z,1.93
2018-09-29T04:28:20.976Z,3.03
2018-09-29T04:30:50.688Z,3.03
2018-09-29T04:33:20.475Z,3.20
2018-09-29T04:35:50.367Z,2.50
2018-09-29T04:38:19.984Z,2.57
2018-09-29T04:40:49.690Z,2.60
2018-09-29T04:43:19.436Z,2.70
2018-09-29T04:45:48.952Z,2.30
2018-09-29T04:48:18.595Z,3.00
2018-09-29T04:50:48.304Z,2.90
2018-09-29T04:53:17.989Z,2.57
2018-09-29T04:55:47.664Z,3.10
2018-09-29T04:58:17.328Z,2.67
2018-09-29T05:00:46.967Z,2.70
2018-09-29T05:03:16.643Z,3.07
2018-09-29T05:05:46.265Z,2.43
2018-09-29T05:08:15.933Z,2.17
2018-09-29T05:10:45.672Z,2.87
2018-09-29T05:13:15.320Z,2.87
2018-09-29T05:15:44.960Z,2.80
2018-09-29T05:18:15.079Z,3.13
2018-09-29T05:20:44.781Z,2.40
2018-09-29T05:23:14.465Z,3.60
2018-09-29T05:25:44.127Z,3.10
2018-09-29T05:28:13.751Z,2.97
2018-09-29T05:30:43.449Z,2.63
2018-09-29T05:33:13.290Z,2.83
2018-09-29T05:35:43.176Z,2.93
2018-09-29T05:38:12.810Z,2.70
2018-09-29T05:40:42.488Z,2.83
2018-09-29T05:43:12.112Z,2.90
2018-09-29T05:45:41.745Z,2.20
2018-09-29T05:48:11.406Z,2.33
2018-09-29T05:50:41.029Z,2.80
2018-09-29T05:53:10.667Z,2.50
2018-09-29T05:55:40.474Z,2.53
2018-09-29T05:58:10.108Z,3.50
2018-09-29T06:00:39.852Z,2.30
2018-09-29T06:03:09.488Z,2.70
2018-09-29T06:05:39.214Z,2.23
2018-09-29T06:08:08.832Z,3.40
2018-09-29T06:10:38.468Z,3.27
2018-09-29T06:13:08.126Z,2.20
2018-09-29T06:15:37.771Z,2.97
2018-09-29T06:18:07.413Z,2.63
2018-09-29T06:20:37.055Z,3.27
2018-09-29T06:23:07.053Z,2.40
2018-09-29T06:25:36.892Z,3.70
2018-09-29T06:28:06.719Z,4.63
2018-09-29T06:30:36.391Z,3.60
2018-09-29T06:33:06.198Z,3.77
2018-09-29T06:35:35.801Z,3.00
2018-09-29T06:38:05.510Z,3.07
2018-09-29T06:40:35.180Z,4.10
2018-09-29T06:43:04.807Z,3.13
2018-09-29T06:45:34.451Z,2.43
2018-09-29T06:48:04.149Z,2.77
2018-09-29T06:50:33.748Z,2.37
2018-09-29T06:53:03.381Z,3.00
2018-09-29T06:55:33.203Z,2.90
2018-09-29T06:58:02.812Z,2.40
2018-09-29T07:00:32.455Z,2.37
2018-09-29T07:03:02.127Z,2.87
2018-09-29T07:05:31.735Z,2.30
2018-09-29T07:08:01.363Z,1.97
2018-09-29T07:10:31.020Z,2.67
2018-09-29T07:13:00.662Z,2.47
2018-09-29T07:15:29.219Z,2.43
2018-09-29T07:17:58.850Z,2.57
2018-09-29T07:20:28.450Z,2.60
2018-09-29T07:22:58.068Z,2.50
2018-09-29T07:25:27.824Z,2.20
2018-09-29T07:27:57.430Z,2.93
2018-09-29T07:30:27.114Z,4.27
2018-09-29T07:32:56.819Z,2.30
2018-09-29T07:35:26.400Z,2.40
2018-09-29T07:37:56.023Z,2.00
2018-09-29T07:40:25.689Z,3.53
2018-09-29T07:42:55.313Z,3.30
2018-09-29T07:45:25.046Z,2.70
2018-09-29T07:47:54.733Z,2.67
2018-09-29T07:50:24.412Z,5.47
2018-09-29T07:52:54.132Z,2.30
2018-09-29T07:55:23.786Z,2.47
2018-09-29T07:57:53.396Z,2.97
2018-09-29T08:00:23.045Z,2.20
2018-09-29T08:02:52.738Z,3.40
2018-09-29T08:05:22.429Z,2.40
2018-09-29T08:07:52.156Z,2.67
2018-09-29T08:10:21.809Z,3.33
2018-09-29T08:12:51.418Z,2.17
2018-09-29T08:15:21.164Z,16.63
2018-09-29T08:17:50.811Z,4.40
2018-09-29T08:20:20.491Z,3.53
2018-09-29T08:22:50.156Z,2.50
2018-09-29T08:25:19.820Z,3.03
2018-09-29T08:27:49.464Z,2.43
2018-09-29T08:30:19.106Z,2.70
2018-09-29T08:32:48.932Z,2.60
2018-09-29T08:35:18.531Z,2.70
2018-09-29T08:37:48.250Z,2.70
2018-09-29T08:40:17.896Z,4.37
2018-09-29T08:42:47.638Z,4.83
2018-09-29T08:45:17.308Z,2.23
2018-09-29T08:47:46.941Z,3.10
2018-09-29T08:50:16.806Z,3.70
2018-09-29T08:52:46.445Z,2.47
2018-09-29T08:55:16.127Z,2.20
2018-09-29T08:57:45.768Z,2.83
2018-09-29T09:00:15.503Z,2.73
2018-09-29T09:02:45.193Z,3.00
2018-09-29T09:05:14.844Z,2.30
2018-09-29T09:07:44.524Z,2.97
2018-09-29T09:10:14.193Z,2.17
2018-09-29T09:12:43.927Z,3.50
2018-09-29T09:15:13.593Z,3.07
2018-09-29T09:17:43.295Z,2.47
2018-09-29T09:20:19.625Z,2.77
2018-09-29T09:22:49.287Z,2.33
2018-09-29T09:25:18.956Z,3.67
2018-09-29T09:27:48.604Z,2.73
2018-09-29T09:30:18.409Z,1.40
2018-09-29T09:32:48.043Z,1.80
2018-09-29T09:35:18.197Z,3.83
2018-09-29T09:37:47.890Z,2.57
2018-09-29T09:40:17.607Z,1.73
2018-09-29T09:42:47.381Z,1.70
2018-09-29T09:45:17.093Z,2.87
2018-09-29T09:47:46.756Z,3.43
2018-09-29T09:50:16.604Z,2.60
2018-09-29T09:52:46.367Z,2.53
2018-09-29T09:55:16.056Z,2.27
2018-09-29T09:57:45.710Z,1.97
2018-09-29T10:00:15.580Z,2.00
2018-09-29T10:02:50.260Z,2.00
2018-09-29T10:05:19.866Z,2.13
2018-09-29T10:07:49.572Z,1.67
2018-09-29T10:10:19.418Z,3.47
2018-09-29T10:12:49.164Z,1.87
2018-09-29T10:15:18.852Z,4.90
2018-09-29T10:17:48.499Z,3.83
2018-09-29T10:20:18.268Z,2.63
2018-09-29T10:22:47.947Z,3.17
2018-09-29T10:25:17.777Z,1.73
2018-09-29T10:27:47.456Z,1.97
2018-09-29T10:30:17.065Z,2.00
2018-09-29T10:32:46.772Z,1.67
2018-09-29T10:35:16.425Z,18.63
2018-09-29T10:37:46.076Z,21.13
2018-09-29T10:40:15.824Z,3.40
2018-09-29T10:42:45.496Z,3.00
2018-09-29T10:45:15.145Z,2.90
2018-09-29T10:47:44.964Z,3.00
2018-09-29T10:50:14.624Z,3.17
2018-09-29T10:52:44.440Z,3.20
2018-09-29T10:55:14.238Z,4.30
2018-09-29T10:57:43.871Z,2.57
2018-09-29T11:00:13.539Z,1.87
2018-09-29T11:02:43.355Z,3.40
2018-09-29T11:05:12.996Z,1.50
2018-09-29T11:07:42.647Z,1.50
2018-09-29T11:10:12.323Z,1.87
2018-09-29T11:12:41.947Z,1.83
2018-09-29T11:15:11.627Z,1.77
2018-09-29T11:17:41.330Z,1.50
2018-09-29T11:20:10.981Z,1.97
2018-09-29T11:22:40.703Z,1.63
2018-09-29T11:25:10.691Z,1.70
2018-09-29T11:27:40.348Z,1.40
2018-09-29T11:30:10.004Z,2.27
2018-09-29T11:32:39.639Z,2.00
2018-09-29T11:35:09.347Z,2.17
2018-09-29T11:37:39.081Z,2.20
2018-09-29T11:40:08.739Z,1.83
2018-09-29T11:42:38.424Z,1.00
2018-09-29T11:45:08.096Z,2.10
2018-09-29T11:47:37.799Z,1.90
2018-09-29T11:50:08.055Z,2.00
2018-09-29T11:52:37.709Z,1.87
2018-09-29T11:55:07.484Z,3.20
2018-09-29T11:57:37.090Z,1.70
2018-09-29T12:00:07.590Z,1.40
2018-09-29T12:02:37.500Z,1.60
2018-09-29T12:05:07.189Z,1.43
2018-09-29T12:07:36.884Z,1.87
2018-09-29T12:10:06.864Z,2.30
2018-09-29T12:12:36.680Z,1.77
2018-09-29T12:15:06.483Z,2.10
2018-09-29T12:17:36.148Z,1.73
2018-09-29T12:20:06.064Z,2.23
2018-09-29T12:22:35.712Z,1.93
2018-09-29T12:25:05.817Z,2.00
2018-09-29T12:27:35.532Z,1.50
2018-09-29T12:30:06.640Z,1.40
2018-09-29T12:32:36.277Z,1.60
2018-09-29T12:35:06.010Z,2.00
2018-09-29T12:37:35.704Z,1.83
2018-09-29T12:40:05.655Z,1.80
2018-09-29T12:42:35.411Z,1.90
2018-09-29T12:45:05.359Z,1.93
2018-09-29T12:47:35.041Z,1.63
2018-09-29T12:50:04.839Z,2.67
2018-09-29T12:52:34.556Z,2.07
2018-09-29T12:55:04.192Z,2.50
2018-09-29T12:57:33.873Z,1.60
2018-09-29T13:00:03.796Z,1.83
2018-09-29T13:02:33.413Z,1.00
2018-09-29T13:05:03.163Z,1.30
2018-09-29T13:07:32.887Z,1.40
2018-09-29T13:10:02.601Z,1.43
2018-09-29T13:12:32.253Z,2.10
2018-09-29T13:15:01.899Z,1.40
2018-09-29T13:17:31.511Z,1.60
2018-09-29T13:20:01.158Z,1.80
2018-09-29T13:22:30.907Z,1.20
2018-09-29T13:25:00.623Z,0.90
2018-09-29T13:27:30.328Z,2.20
2018-09-29T13:30:00.073Z,1.10
2018-09-29T13:32:29.752Z,1.30
2018-09-29T13:34:59.417Z,1.53
2018-09-29T13:37:29.616Z,1.33
2018-09-29T13:39:59.278Z,0.97
2018-09-29T13:42:28.984Z,1.30
2018-09-29T13:44:58.677Z,1.20
2018-09-29T13:47:28.360Z,1.33
2018-09-29T13:49:58.028Z,1.20
2018-09-29T13:52:27.725Z,2.10
2018-09-29T13:54:57.343Z,1.00
2018-09-29T13:57:26.988Z,1.40
2018-09-29T13:59:56.622Z,1.07
2018-09-29T14:02:26.348Z,1.10
2018-09-29T14:04:55.989Z,0.87
2018-09-29T14:07:25.645Z,1.70
2018-09-29T14:09:55.268Z,2.07
2018-09-29T14:12:24.897Z,1.70
2018-09-29T14:14:54.656Z,3.80
2018-09-29T14:17:24.336Z,1.90
2018-09-29T14:19:54.002Z,1.40
2018-09-29T14:22:23.731Z,2.40
2018-09-29T14:24:55.115Z,1.77
2018-09-29T14:27:24.801Z,1.50
2018-09-29T14:29:54.535Z,2.00
2018-09-29T14:32:24.369Z,1.63
2018-09-29T14:34:54.052Z,1.37
2018-09-29T14:37:23.875Z,1.33
2018-09-29T14:39:53.554Z,1.27
2018-09-29T14:42:23.341Z,1.90
2018-09-29T14:44:53.008Z,1.57
2018-09-29T14:47:22.691Z,2.23
2018-09-29T14:49:52.605Z,1.57
2018-09-29T14:52:22.255Z,1.80
2018-09-29T14:54:51.973Z,1.60
2018-09-29T14:57:21.640Z,1.00
2018-09-29T14:59:51.313Z,1.27
2018-09-29T15:02:21.063Z,0.97
2018-09-29T15:04:50.793Z,1.40
2018-09-29T15:07:20.422Z,1.90
2018-09-29T15:09:50.104Z,1.33
2018-09-29T15:12:19.789Z,1.40
2018-09-29T15:14:49.467Z,1.60
2018-09-29T15:17:19.106Z,1.37
2018-09-29T15:19:49.843Z,2.00
2018-09-29T15:22:19.548Z,1.97
2018-09-29T15:24:49.294Z,2.70
2018-09-29T15:27:19.046Z,1.30
2018-09-29T15:29:48.741Z,1.10
2018-09-29T15:32:18.395Z,1.30
2018-09-29T15:34:48.070Z,1.43
2018-09-29T15:37:17.748Z,1.47
2018-09-29T15:39:47.459Z,1.63
2018-09-29T15:42:17.256Z,1.83
2018-09-29T15:44:46.904Z,2.07
2018-09-29T15:47:16.590Z,1.97
2018-09-29T15:49:46.284Z,2.27
2018-09-29T15:52:15.964Z,2.07
2018-09-29T15:54:45.620Z,2.40
2018-09-29T15:57:15.279Z,1.30
2018-09-29T15:59:44.994Z,1.10
2018-09-29T16:02:14.686Z,1.70
2018-09-29T16:04:44.439Z,1.10
2018-09-29T16:07:14.512Z,1.57
2018-09-29T16:09:44.279Z,2.23
2018-09-29T16:12:13.940Z,1.53
2018-09-29T16:14:43.667Z,2.63
2018-09-29T16:17:13.340Z,2.93
2018-09-29T16:19:43.015Z,1.73
2018-09-29T16:22:12.711Z,1.87
2018-09-29T16:24:42.477Z,1.40
2018-09-29T16:27:12.307Z,1.53
2018-09-29T16:29:41.991Z,1.63
2018-09-29T16:32:11.682Z,1.27
2018-09-29T16:34:41.365Z,1.80
2018-09-29T16:37:11.001Z,1.33
2018-09-29T16:39:40.668Z,1.90
2018-09-29T16:42:10.685Z,1.60
2018-09-29T16:44:40.296Z,2.80
2018-09-29T16:47:10.021Z,2.30
2018-09-29T16:49:39.901Z,1.60
2018-09-29T16:52:09.696Z,2.23
2018-09-29T16:54:39.339Z,2.30
2018-09-29T16:57:09.125Z,1.50
2018-09-29T16:59:39.152Z,1.80
2018-09-29T17:02:08.795Z,1.53
2018-09-29T17:04:38.485Z,1.77
2018-09-29T17:07:08.175Z,2.20
2018-09-29T17:09:37.924Z,2.40
2018-09-29T17:12:07.764Z,2.27
2018-09-29T17:14:37.476Z,2.60
2018-09-29T17:17:07.702Z,1.83
2018-09-29T17:19:37.556Z,2.30
2018-09-29T17:22:07.244Z,2.57
2018-09-29T17:24:36.884Z,3.00
2018-09-29T17:27:06.675Z,3.30
2018-09-29T17:29:36.448Z,2.87
2018-09-29T17:32:06.120Z,2.80
2018-09-29T17:34:35.780Z,2.23
2018-09-29T17:37:05.480Z,2.43
2018-09-29T17:39:35.180Z,2.90
2018-09-29T17:42:05.032Z,3.10
2018-09-29T17:44:34.712Z,3.30
2018-09-29T17:47:04.436Z,3.70
2018-09-29T17:49:34.144Z,4.80
2018-09-29T17:52:03.795Z,5.20
2018-09-29T17:54:33.459Z,5.13
2018-09-29T17:57:03.100Z,5.87
2018-09-29T17:59:32.764Z,5.60
2018-09-29T18:02:02.590Z,7.83
2018-09-29T18:04:32.299Z,6.73
2018-09-29T18:07:01.900Z,5.60
2018-09-29T18:09:31.592Z,5.87
2018-09-29T18:12:01.263Z,5.53
2018-09-29T18:14:30.920Z,6.37
2018-09-29T18:17:00.616Z,6.77
2018-09-29T18:19:30.355Z,5.70
2018-09-29T18:22:00.158Z,7.13
2018-09-29T18:24:29.861Z,6.70
2018-09-29T18:26:59.580Z,6.80
2018-09-29T18:29:29.282Z,6.53
2018-09-29T18:31:59.016Z,7.97
2018-09-29T18:34:28.842Z,7.40
2018-09-29T18:36:58.564Z,6.70
2018-09-29T18:39:28.278Z,9.83
2018-09-29T18:41:57.927Z,9.03
2018-09-29T18:44:27.568Z,8.57
2018-09-29T18:46:57.272Z,8.53
2018-09-29T18:49:26.912Z,9.03
2018-09-29T18:51:56.682Z,10.17
2018-09-29T18:54:26.624Z,7.73
2018-09-29T18:56:56.276Z,8.60
2018-09-29T18:59:25.987Z,8.67
2018-09-29T19:01:55.656Z,8.93
2018-09-29T19:04:25.428Z,9.50
2018-09-29T19:06:55.036Z,10.07
2018-09-29T19:09:24.906Z,8.90
2018-09-29T19:11:54.566Z,10.40
2018-09-29T19:14:24.269Z,10.30
2018-09-29T19:16:53.911Z,7.50
2018-09-29T19:19:23.644Z,10.27
2018-09-29T19:21:53.365Z,10.60
2018-09-29T19:24:22.992Z,10.13
2018-09-29T19:26:52.715Z,10.77
2018-09-29T19:29:22.373Z,11.30
2018-09-29T19:31:52.020Z,12.07
2018-09-29T19:34:21.673Z,10.83
2018-09-29T19:36:51.359Z,11.60
2018-09-29T19:39:21.023Z,12.47
2018-09-29T19:41:50.648Z,9.87
2018-09-29T19:44:20.317Z,13.67
2018-09-29T19:46:49.996Z,10.93
2018-09-29T19:49:19.705Z,12.87
2018-09-29T19:51:49.368Z,12.87
2018-09-29T19:54:19.004Z,13.87
2018-09-29T19:56:48.835Z,12.57
2018-09-29T19:59:18.498Z,13.50
2018-09-29T20:01:48.301Z,15.23
2018-09-29T20:04:17.962Z,13.47
2018-09-29T20:06:47.620Z,13.40
2018-09-29T20:09:17.290Z,14.70
2018-09-29T20:11:46.957Z,12.47
2018-09-29T20:14:16.643Z,15.10
2018-09-29T20:16:46.357Z,13.93
2018-09-29T20:19:16.104Z,13.07
2018-09-29T20:21:45.853Z,12.87
2018-09-29T20:24:15.630Z,13.33
2018-09-29T20:26:45.291Z,14.40
2018-09-29T20:29:14.934Z,11.53
2018-09-29T20:31:44.679Z,11.80
2018-09-29T20:34:14.353Z,12.40
2018-09-29T20:36:44.067Z,12.50
2018-09-29T20:39:14.324Z,11.53
2018-09-29T20:41:44.037Z,10.27
2018-09-29T20:44:13.708Z,11.73
2018-09-29T20:46:43.353Z,13.93
2018-09-29T20:49:13.039Z,13.03
2018-09-29T20:51:42.728Z,12.73
2018-09-29T20:54:12.382Z,12.57
2018-09-29T20:56:42.058Z,15.13
2018-09-29T20:59:11.838Z,13.07
2018-09-29T21:01:41.466Z,13.37
2018-09-29T21:04:11.135Z,14.70
2018-09-29T21:06:40.834Z,13.40
2018-09-29T21:09:10.488Z,15.80
2018-09-29T21:11:40.133Z,14.60
2018-09-29T21:14:10.024Z,13.63
2018-09-29T21:16:39.682Z,16.27
2018-09-29T21:19:09.296Z,12.07
2018-09-29T21:21:39.016Z,9.80
2018-09-29T21:24:08.715Z,10.50
2018-09-29T21:26:38.380Z,11.33
2018-09-29T21:29:08.039Z,8.90
2018-09-29T21:31:37.684Z,7.77
2018-09-29T21:34:07.891Z,8.60
2018-09-29T21:36:37.688Z,12.17
2018-09-29T21:39:09.641Z,9.40
2018-09-29T21:41:39.352Z,8.27
2018-09-29T21:44:09.009Z,8.13
2018-09-29T21:46:38.670Z,7.90
2018-09-29T21:49:08.300Z,8.40
2018-09-29T21:51:37.948Z,8.50
2018-09-29T21:54:07.580Z,8.20
2018-09-29T21:56:37.417Z,8.43
2018-09-29T21:59:07.136Z,8.80
2018-09-29T22:01:36.805Z,7.60
2018-09-29T22:04:06.514Z,7.87
2018-09-29T22:06:36.176Z,6.63
2018-09-29T22:09:07.895Z,8.40
2018-09-29T22:11:37.697Z,7.97
2018-09-29T22:14:07.397Z,6.77
2018-09-29T22:16:37.079Z,6.87
2018-09-29T22:19:07.120Z,7.10
2018-09-29T22:21:36.793Z,6.37
2018-09-29T22:24:06.479Z,7.53
2018-09-29T22:26:36.156Z,7.73
2018-09-29T22:29:06.233Z,8.20
2018-09-29T22:31:35.962Z,8.40
2018-09-29T22:34:05.572Z,7.27
2018-09-29T22:36:35.337Z,8.87
2018-09-29T22:39:06.461Z,7.77
2018-09-29T22:41:36.155Z,8.60
2018-09-29T22:44:05.826Z,8.30
2018-09-29T22:46:35.516Z,7.60
2018-09-29T22:49:05.244Z,8.07
2018-09-29T22:51:34.908Z,7.00
2018-09-29T22:54:04.691Z,7.47
2018-09-29T22:56:34.309Z,7.63
2018-09-29T22:59:04.016Z,8.27
2018-09-29T23:01:33.675Z,7.93
2018-09-29T23:04:03.320Z,7.77
2018-09-29T23:06:32.965Z,7.80
2018-09-29T23:09:02.751Z,7.40
2018-09-29T23:11:32.473Z,8.13
2018-09-29T23:14:02.122Z,7.57
2018-09-29T23:16:31.765Z,6.90
2018-09-29T23:19:01.428Z,7.40
2018-09-29T23:21:31.053Z,6.23
2018-09-29T23:24:00.908Z,6.90
2018-09-29T23:26:30.583Z,6.30
2018-09-29T23:29:00.316Z,6.10
2018-09-29T23:31:30.016Z,5.87
2018-09-29T23:33:59.716Z,6.10
2018-09-29T23:36:29.418Z,6.83
2018-09-29T23:38:59.077Z,5.67
2018-09-29T23:41:28.753Z,5.97
2018-09-29T23:43:58.392Z,5.83
2018-09-29T23:46:28.025Z,6.17
2018-09-29T23:48:57.647Z,5.13
2018-09-29T23:51:27.324Z,5.80
2018-09-29T23:53:56.988Z,4.93
2018-09-29T23:56:26.844Z,6.47
2018-09-29T23:58:56.531Z,5.57
